createdAt,value
2022-11-21T11:26:28.964Z,100.00
2022-11-21T11:29:14.639Z,100.00
2022-11-21T11:31:46.012Z,100.00
2022-11-21T11:34:16.616Z,100.00
2022-11-21T11:36:56.818Z,100.00
2022-11-21T11:39:41.295Z,100.00
2022-11-21T11:43:06.660Z,99.38
2022-11-21T11:46:17.740Z,99.26
2022-11-21T11:49:11.468Z,98.32
2022-11-21T11:54:10.170Z,94.64
2022-11-21T11:56:39.769Z,94.50
2022-11-21T11:59:18.092Z,94.11
2022-11-21T12:01:54.855Z,93.76
2022-11-21T12:04:26.560Z,93.30
2022-11-21T12:10:00.839Z,94.13
2022-11-21T12:12:35.470Z,92.38
2022-11-21T12:15:29.580Z,93.88
2022-11-21T12:18:13.083Z,97.51
2022-11-21T12:20:53.801Z,98.19
2022-11-21T12:23:23.402Z,98.40
2022-11-21T12:26:10.872Z,98.59
2022-11-21T12:28:54.280Z,99.84
2022-11-21T12:31:31.203Z,99.25
2022-11-21T12:34:12.805Z,99.84
2022-11-21T12:36:48.029Z,100.00
2022-11-21T12:39:55.226Z,100.00
2022-11-21T12:42:48.260Z,99.73
2022-11-21T12:45:34.985Z,99.34
2022-11-21T12:48:40.268Z,100.00
2022-11-21T12:51:59.275Z,100.00
2022-11-21T12:55:03.834Z,97.05
2022-11-21T12:57:51.233Z,100.00
2022-11-21T13:00:29.173Z,100.00
2022-11-21T13:03:34.262Z,100.00
2022-11-21T13:06:06.270Z,100.00
2022-11-21T13:08:38.496Z,99.82
2022-11-21T13:11:27.876Z,99.46
2022-11-21T13:14:08.489Z,98.65
2022-11-21T13:16:44.359Z,98.32
2022-11-21T13:19:24.845Z,98.45
2022-11-21T13:21:55.161Z,98.27
2022-11-21T13:24:58.169Z,97.40
2022-11-21T13:27:36.727Z,96.21
2022-11-21T13:30:25.430Z,94.55
2022-11-21T13:32:55.588Z,96.42
2022-11-21T13:35:57.866Z,95.17
2022-11-21T13:38:26.876Z,95.06
2022-11-21T13:41:08.747Z,93.53
2022-11-21T13:43:37.400Z,93.48
2022-11-21T13:46:08.823Z,94.21
2022-11-21T13:49:04.225Z,93.15
2022-11-21T13:51:54.585Z,92.98
2022-11-21T13:55:05.001Z,92.42
2022-11-21T13:57:50.806Z,92.63
2022-11-21T14:05:02.437Z,92.79
2022-11-21T14:07:36.114Z,90.73
2022-11-21T14:10:19.300Z,92.20
2022-11-21T14:12:51.858Z,91.33
2022-11-21T14:15:30.641Z,89.41
2022-11-21T14:18:00.877Z,90.47
2022-11-21T14:20:51.519Z,90.53
2022-11-21T14:23:23.423Z,90.21
2022-11-21T14:25:55.436Z,90.00
2022-11-21T14:28:27.881Z,90.32
2022-11-21T14:31:01.278Z,89.13
2022-11-21T14:33:33.603Z,89.89
2022-11-21T14:36:11.184Z,89.96
2022-11-21T14:38:45.284Z,90.72
2022-11-21T14:41:30.009Z,89.27
2022-11-21T14:44:17.663Z,89.04
2022-11-21T14:46:48.029Z,89.85
2022-11-21T14:49:28.559Z,89.00
2022-11-21T14:52:19.500Z,89.69
2022-11-21T14:55:28.034Z,89.62
2022-11-21T14:57:44.750Z,89.63
2022-11-21T15:03:21.860Z,88.78
2022-11-21T15:06:08.223Z,89.40
2022-11-21T15:09:18.364Z,89.48
2022-11-21T15:11:37.492Z,88.25
2022-11-21T15:14:19.708Z,89.14
2022-11-21T15:16:50.752Z,88.47
2022-11-21T15:19:23.488Z,89.44
2022-11-21T15:21:54.355Z,88.89
2022-11-21T15:24:41.139Z,88.36
2022-11-21T15:27:32.644Z,88.22
2022-11-21T15:30:25.081Z,88.30
2022-11-21T15:33:12.429Z,87.91
2022-11-21T15:35:51.652Z,88.20
2022-11-21T15:38:27.694Z,88.01
2022-11-21T15:41:23.764Z,88.04
2022-11-21T15:43:54.983Z,88.05
2022-11-21T15:46:26.135Z,88.08
2022-11-21T15:48:56.943Z,87.46
2022-11-21T15:51:59.625Z,87.25
2022-11-21T15:54:21.549Z,87.27
2022-11-21T15:56:52.337Z,87.77
2022-11-21T15:59:21.196Z,87.56
2022-11-21T16:01:49.786Z,87.86
2022-11-21T16:04:23.891Z,88.03
2022-11-21T16:06:54.194Z,88.44
2022-11-21T16:09:23.136Z,87.97
2022-11-21T16:11:53.703Z,88.05
2022-11-21T16:14:22.459Z,88.52
2022-11-21T16:16:51.033Z,88.76
2022-11-21T16:19:19.696Z,88.83
2022-11-21T16:21:48.332Z,88.69
2022-11-21T16:24:16.994Z,88.35
2022-11-21T16:26:46.941Z,88.82
2022-11-21T16:29:17.856Z,87.50
2022-11-21T16:31:47.157Z,87.59
2022-11-21T16:34:20.283Z,87.62
2022-11-21T16:36:48.930Z,87.36
2022-11-21T16:39:29.604Z,87.35
2022-11-21T16:41:58.941Z,87.52
2022-11-21T16:44:32.357Z,87.39
2022-11-21T16:47:05.187Z,87.67
2022-11-21T16:49:42.264Z,87.60
2022-11-21T16:52:10.972Z,88.49
2022-11-21T16:54:39.690Z,88.21
2022-11-21T16:57:08.451Z,88.36
2022-11-21T16:59:39.191Z,89.60
2022-11-21T17:02:08.370Z,89.47
2022-11-21T17:04:40.109Z,89.13
2022-11-21T17:07:08.907Z,89.87
2022-11-21T17:09:37.632Z,89.49
2022-11-21T17:12:07.567Z,89.80
2022-11-21T17:18:02.150Z,90.43
2022-11-21T17:20:30.793Z,90.81
2022-11-21T17:22:59.993Z,90.53
2022-11-21T17:25:28.657Z,91.08
2022-11-21T17:28:00.069Z,91.86
2022-11-21T17:30:30.935Z,91.54
2022-11-21T17:33:01.496Z,91.19
2022-11-21T17:35:30.173Z,92.11
2022-11-21T17:37:58.924Z,92.03
2022-11-21T17:40:27.584Z,92.47
2022-11-21T17:42:56.296Z,92.13
2022-11-21T17:45:24.960Z,91.59
2022-11-21T17:47:55.560Z,92.00
2022-11-21T17:50:24.268Z,92.03
2022-11-21T17:52:52.944Z,91.12
2022-11-21T17:55:21.661Z,91.70
2022-11-21T17:57:50.315Z,92.25
2022-11-21T18:00:19.325Z,90.91
2022-11-21T18:02:48.097Z,91.71
2022-11-21T18:05:18.759Z,91.71
2022-11-21T18:07:48.071Z,91.66
2022-11-21T18:10:41.714Z,92.60
2022-11-21T18:13:08.793Z,91.67
2022-11-21T18:15:37.492Z,92.29
2022-11-21T18:18:06.666Z,92.50
2022-11-21T18:20:37.345Z,92.02
2022-11-21T18:23:21.244Z,91.79
2022-11-21T18:34:37.396Z,92.15
2022-11-21T18:37:18.668Z,92.44
2022-11-21T18:40:45.280Z,91.33
2022-11-21T18:44:21.639Z,91.48
2022-11-21T18:46:56.619Z,92.22
2022-11-21T18:49:27.520Z,91.10
2022-11-21T18:51:59.021Z,91.04
2022-11-21T18:54:27.799Z,91.43
2022-11-21T18:56:56.754Z,91.22
2022-11-21T18:59:28.104Z,91.18
2022-11-21T19:01:57.757Z,91.66
2022-11-21T19:04:27.943Z,91.78
2022-11-21T19:06:58.723Z,91.84
2022-11-21T19:09:32.337Z,91.76
2022-11-21T19:12:01.685Z,91.51
2022-11-21T19:14:30.719Z,92.18
2022-11-21T19:16:59.687Z,91.20
2022-11-21T19:19:36.265Z,90.47
2022-11-21T19:22:07.152Z,91.56
2022-11-21T19:25:28.376Z,90.61
2022-11-21T19:27:58.392Z,91.71
2022-11-21T19:30:27.688Z,91.72
2022-11-21T19:32:56.722Z,92.04
2022-11-21T19:35:25.589Z,92.73
2022-11-21T19:37:56.251Z,92.17
2022-11-21T19:40:24.949Z,91.53
2022-11-21T19:42:53.747Z,92.03
2022-11-21T19:45:22.467Z,92.04
2022-11-21T19:47:56.290Z,92.85
2022-11-21T19:50:26.401Z,93.74
2022-11-21T19:52:57.006Z,94.06
2022-11-21T19:55:28.134Z,94.12
2022-11-21T19:57:56.958Z,94.12
2022-11-21T20:00:28.030Z,93.90
2022-11-21T20:02:56.671Z,94.74
2022-11-21T20:05:25.437Z,94.17
2022-11-21T20:08:02.985Z,95.06
2022-11-21T20:10:34.755Z,94.92
2022-11-21T20:13:03.732Z,94.89
2022-11-21T20:15:32.490Z,95.23
2022-11-21T20:18:01.134Z,95.97
2022-11-21T20:20:29.786Z,95.96
2022-11-21T20:23:00.483Z,95.84
2022-11-21T20:25:29.077Z,96.13
2022-11-21T20:27:57.737Z,95.88
2022-11-21T20:30:27.169Z,96.08
2022-11-21T20:32:55.799Z,97.34
2022-11-21T20:35:24.509Z,97.77
2022-11-21T20:37:53.091Z,97.35
2022-11-21T20:40:23.607Z,97.59
2022-11-21T20:42:53.979Z,97.89
2022-11-21T20:48:14.659Z,97.70
2022-11-21T20:53:51.925Z,98.18
2022-11-21T20:56:24.830Z,98.30
2022-11-21T20:58:53.441Z,97.60
2022-11-21T21:01:23.572Z,98.88
2022-11-21T21:03:52.540Z,99.06
2022-11-21T21:06:23.428Z,99.17
2022-11-21T21:08:53.027Z,100.00
2022-11-21T21:11:50.240Z,100.00
2022-11-21T21:14:13.729Z,100.00
2022-11-21T21:16:42.373Z,99.21
2022-11-21T21:19:11.047Z,99.29
2022-11-21T21:21:40.975Z,98.98
2022-11-21T21:24:12.553Z,99.28
2022-11-21T21:26:45.775Z,100.00
2022-11-21T21:29:19.127Z,99.34
2022-11-21T21:31:51.660Z,100.00
2022-11-21T21:34:21.688Z,100.00
2022-11-21T21:36:50.750Z,100.00
2022-11-21T21:39:19.870Z,100.00
2022-11-21T21:41:50.499Z,99.94
2022-11-21T21:44:19.216Z,100.00
2022-11-21T21:46:47.863Z,99.72
2022-11-21T21:49:16.551Z,100.00
2022-11-21T21:51:45.147Z,100.00
2022-11-21T21:54:19.537Z,100.00
2022-11-21T21:56:51.197Z,100.00
2022-11-21T21:59:20.004Z,99.92
2022-11-21T22:01:48.786Z,100.00
2022-11-21T22:04:17.450Z,100.00
2022-11-21T22:06:46.065Z,100.00
2022-11-21T22:09:14.762Z,100.00
2022-11-21T22:11:43.472Z,100.00
2022-11-21T22:14:16.968Z,100.00
2022-11-21T22:16:45.840Z,100.00
2022-11-21T22:19:14.896Z,100.00
2022-11-21T22:21:43.648Z,100.00
2022-11-21T22:24:31.080Z,100.00
2022-11-21T22:27:00.222Z,100.00
2022-11-21T22:29:31.368Z,100.00
2022-11-21T22:32:00.328Z,100.00
2022-11-21T22:34:29.634Z,100.00
2022-11-21T22:36:58.827Z,100.00
2022-11-21T22:39:27.965Z,100.00
2022-11-21T22:41:59.847Z,100.00
2022-11-21T22:44:30.868Z,100.00
2022-11-21T22:47:00.002Z,100.00
2022-11-21T22:49:29.022Z,100.00
2022-11-21T22:51:57.999Z,100.00
2022-11-21T22:54:27.438Z,100.00
2022-11-21T22:56:56.438Z,100.00
2022-11-21T22:59:25.734Z,100.00
2022-11-21T23:01:56.298Z,100.00
2022-11-21T23:04:24.965Z,100.00
2022-11-21T23:06:53.550Z,100.00
2022-11-21T23:09:22.213Z,100.00
2022-11-21T23:11:50.928Z,100.00
2022-11-21T23:14:20.048Z,100.00
2022-11-21T23:16:48.696Z,100.00
2022-11-21T23:19:19.329Z,100.00
2022-11-21T23:21:47.961Z,100.00
2022-11-21T23:24:16.658Z,100.00
2022-11-21T23:26:45.357Z,100.00
2022-11-21T23:29:14.084Z,100.00
2022-11-21T23:31:42.750Z,100.00
2022-11-21T23:34:11.973Z,100.00
2022-11-21T23:36:42.556Z,100.00
2022-11-21T23:39:11.199Z,100.00
2022-11-21T23:41:40.025Z,100.00
2022-11-21T23:44:08.804Z,100.00
2022-11-21T23:46:37.480Z,100.00
2022-11-21T23:49:06.148Z,100.00
2022-11-21T23:51:34.858Z,100.00
2022-11-21T23:54:05.827Z,100.00
2022-11-21T23:56:34.767Z,100.00
2022-11-21T23:59:03.431Z,100.00
